Main page
METAR-TAF:

METAR-TAF

Airports :

Santa Genoveva Airport

Goiânia, Goiás, Brazil

latitude: 16-38S, longitude: 049-13W, elevation: 747 m

Current weather observation

The report was made 10 minutes ago, at 08:00 UTC
Wind 4 kt from the North/Northwest
Temperature 19°C
Humidity 64%
Pressure 1013 hPa
Visibility 10 km or more
no clouds below 1500 m and no cumulonimbus

METAR: SBGO 180800Z 34004KT CAVOK 19/12 Q1013

Time: 05:10 (08:10 UTC)

Forecast

The report was made 4 hours and 10 minutes ago, at 04:00 UTC
Forecast valid from 18 at 06 UTC to 19 at 06 UTC
Wind kt from the North
Visibility 10 km or more
no clouds below 1500 m and no cumulonimbus
Becoming
from 18 at 08 UTC to 18 at 10 UTC
Wind 5 kt from the South/Southeast
Becoming
from 18 at 12 UTC to 18 at 14 UTC
Wind 8 kt from the East
Becoming
from 19 at 04 UTC to 19 at 06 UTC
Wind kt from the North

TAF: SBGO 180400Z 1806/1906 00000KT CAVOK TN19/1809Z TX37/1818Z BECMG 1808/1810 16005KT BECMG 1812/1814 08008KT BECMG 1904/1906 00000KT RMK PFD

Weather observations and forecasts of more than 4000 airports (METAR and TAF reports).

The available stations are represented by yellow and red dots on the map.

Hover mouse over dot to see the name of the station.

Then click to see weather observations and forecasts.

To change the map : click on the green buttons with a black cross to zoom in, on the green button with a dash to zoom out, or on the green arrows for adjacent maps.


METAR-TAF: